Time;durP1;ratioP1;P1;durP2;ratioP2;P2;SDS_P1;SDS_P2;PMS_P1;PMS_P2;Temp;Humidity;BMP_temperature;BMP_pressure;BME280_temperature;BME280_humidity;BME280_pressure;Samples;Min_cycle;Max_cycle;Signal;HPM_P1;HPM_P2
2022/06/29 00:00:27;;;;;;;1.30;0.90;;;25.80;66.80;;;;;;5013287;28;20577;-83
2022/06/29 00:02:54;;;;;;;1.00;0.90;;;25.80;66.80;;;;;;5013369;28;20440;-84
2022/06/29 00:05:23;;;;;;;1.10;1.00;;;25.80;66.80;;;;;;5013241;28;20471;-83
2022/06/29 00:07:51;;;;;;;1.10;1.00;;;25.80;66.80;;;;;;5013272;28;20439;-82
2022/06/29 00:10:19;;;;;;;1.10;0.80;;;25.80;66.80;;;;;;5013009;28;20559;-83
2022/06/29 00:12:48;;;;;;;1.20;1.10;;;25.80;66.80;;;;;;5013312;28;20537;-82
2022/06/29 00:15:17;;;;;;;1.10;0.80;;;25.80;66.80;;;;;;5013250;28;20539;-82
2022/06/29 00:17:44;;;;;;;1.30;0.80;;;25.80;66.70;;;;;;5013215;28;20523;-83
2022/06/29 00:20:12;;;;;;;1.10;0.87;;;25.80;66.70;;;;;;5016182;28;20493;-83
2022/06/29 00:22:40;;;;;;;1.00;0.87;;;25.80;66.70;;;;;;5017160;28;20439;-83
2022/06/29 00:25:08;;;;;;;1.00;0.90;;;25.80;66.80;;;;;;5016999;28;20467;-83
2022/06/29 00:27:36;;;;;;;1.00;0.90;;;25.80;66.80;;;;;;5016831;28;20566;-83
2022/06/29 00:30:05;;;;;;;1.03;0.93;;;25.80;66.80;;;;;;5016922;28;20942;-83
2022/06/29 00:32:32;;;;;;;1.27;1.13;;;25.80;66.80;;;;;;5017146;28;20444;-83
2022/06/29 00:34:59;;;;;;;2.07;1.00;;;25.80;66.80;;;;;;5016961;28;20440;-84
2022/06/29 00:37:26;;;;;;;1.10;0.90;;;25.80;67.70;;;;;;5017073;28;20522;-83
2022/06/29 00:39:53;;;;;;;0.90;0.70;;;25.70;67.60;;;;;;5016674;28;20479;-82
2022/06/29 00:42:20;;;;;;;1.00;0.80;;;25.80;66.90;;;;;;5016792;28;20538;-83
2022/06/29 00:44:47;;;;;;;1.10;0.90;;;25.80;66.80;;;;;;5016726;28;20442;-83
2022/06/29 00:47:15;;;;;;;1.00;0.80;;;25.70;66.70;;;;;;5016710;28;20439;-83
2022/06/29 00:49:42;;;;;;;1.00;0.80;;;25.80;66.80;;;;;;5016700;28;20470;-83
2022/06/29 00:52:11;;;;;;;1.00;0.90;;;25.80;66.80;;;;;;5016600;28;20451;-83
2022/06/29 00:54:40;;;;;;;1.03;0.80;;;25.70;66.70;;;;;;5016536;28;20538;-92
2022/06/29 00:57:09;;;;;;;1.00;0.77;;;25.80;66.80;;;;;;5016442;28;20522;-84
2022/06/29 00:59:44;;;;;;;1.10;0.90;;;25.70;66.70;;;;;;5016329;28;20530;-84
2022/06/29 01:02:11;;;;;;;1.00;0.83;;;25.80;66.80;;;;;;5016490;28;20965;-83
2022/06/29 01:04:40;;;;;;;0.97;0.80;;;25.80;66.90;;;;;;5016289;28;20950;-83
2022/06/29 01:07:07;;;;;;;1.20;0.90;;;25.70;66.70;;;;;;5016317;28;20485;-83
2022/06/29 01:09:34;;;;;;;1.10;1.00;;;25.80;66.80;;;;;;5016275;28;20902;-83
2022/06/29 01:12:01;;;;;;;1.00;0.80;;;25.70;66.70;;;;;;5016306;28;20539;-91
2022/06/29 01:14:28;;;;;;;1.00;0.90;;;25.80;66.80;;;;;;5016197;28;20439;-83
2022/06/29 01:16:55;;;;;;;1.10;0.90;;;25.80;66.80;;;;;;5016123;28;20487;-83
2022/06/29 01:19:23;;;;;;;1.30;1.20;;;25.70;66.70;;;;;;5016060;28;20448;-83
2022/06/29 01:21:53;;;;;;;1.20;0.93;;;25.80;66.80;;;;;;5016095;28;20878;-83
2022/06/29 01:24:23;;;;;;;1.13;0.80;;;25.80;66.70;;;;;;5016025;28;20534;-83
2022/06/29 01:26:50;;;;;;;1.00;0.90;;;25.70;66.60;;;;;;5015758;28;20479;-83
2022/06/29 01:29:17;;;;;;;1.10;0.90;;;25.80;66.80;;;;;;5015939;28;20446;-83
2022/06/29 01:31:45;;;;;;;1.00;0.83;;;25.80;66.80;;;;;;5015246;28;20474;-83
2022/06/29 01:34:11;;;;;;;1.10;0.90;;;25.70;66.70;;;;;;5015854;28;20538;-83
2022/06/29 01:36:38;;;;;;;1.20;0.90;;;25.80;67.60;;;;;;5015807;28;20448;-82
2022/06/29 01:39:05;;;;;;;1.20;1.00;;;25.70;66.70;;;;;;5015661;28;20448;-83
2022/06/29 01:41:34;;;;;;;1.20;0.90;;;25.80;66.80;;;;;;5015265;28;20487;-83
2022/06/29 01:44:00;;;;;;;1.00;0.80;;;25.80;66.80;;;;;;5015813;28;20534;-83
2022/06/29 01:46:27;;;;;;;1.00;0.80;;;25.70;67.50;;;;;;5015563;28;20450;-84
2022/06/29 01:48:54;;;;;;;1.00;0.90;;;25.70;66.80;;;;;;5015562;28;20469;-84
2022/06/29 01:51:21;;;;;;;1.00;0.87;;;25.70;66.70;;;;;;5015584;28;20867;-84
2022/06/29 01:53:48;;;;;;;1.00;0.77;;;25.70;66.70;;;;;;5015566;28;20520;-84
2022/06/29 01:56:15;;;;;;;1.17;1.00;;;25.80;66.80;;;;;;5015329;28;20509;-84
2022/06/29 01:58:43;;;;;;;1.00;0.90;;;25.80;66.90;;;;;;5015428;28;21009;-84
2022/06/29 02:01:10;;;;;;;0.97;0.80;;;25.70;66.70;;;;;;5015382;28;20558;-84
2022/06/29 02:03:37;;;;;;;1.10;1.00;;;25.70;66.80;;;;;;5015328;28;20450;-84
2022/06/29 02:06:04;;;;;;;0.93;0.77;;;25.80;66.90;;;;;;5015279;28;20439;-84
2022/06/29 02:08:31;;;;;;;1.57;1.10;;;25.70;66.70;;;;;;5015077;28;20848;-84
2022/06/29 02:11:00;;;;;;;1.10;0.80;;;25.70;67.60;;;;;;5015015;28;20534;-84
2022/06/29 02:13:27;;;;;;;1.10;0.93;;;25.70;66.70;;;;;;5015274;28;20790;-84
2022/06/29 02:15:56;;;;;;;1.00;0.90;;;25.70;66.80;;;;;;5015032;28;20459;-83
2022/06/29 02:18:23;;;;;;;0.97;0.80;;;25.70;66.80;;;;;;5015112;28;20440;-84
2022/06/29 02:20:50;;;;;;;1.03;0.90;;;25.70;66.70;;;;;;5014859;28;20998;-84
2022/06/29 02:23:17;;;;;;;1.20;1.00;;;25.70;66.70;;;;;;5014780;28;20994;-84
2022/06/29 02:25:44;;;;;;;1.20;1.10;;;25.70;66.80;;;;;;5014861;28;20534;-84
2022/06/29 02:28:11;;;;;;;0.93;0.80;;;25.70;66.70;;;;;;5014649;28;20499;-84
2022/06/29 02:36:08;;;;;;;1.20;1.00;;;25.70;66.80;;;;;;5014923;28;20937;-83
2022/06/29 02:38:35;;;;;;;1.50;1.00;;;25.70;66.80;;;;;;5014774;28;20517;-84
2022/06/29 02:41:02;;;;;;;1.20;0.87;;;25.70;66.80;;;;;;5014351;28;20571;-84
2022/06/29 02:43:29;;;;;;;1.00;0.90;;;25.70;66.80;;;;;;5013505;28;20542;-84
2022/06/29 02:45:55;;;;;;;1.00;0.80;;;25.70;66.70;;;;;;5014619;28;20530;-84
2022/06/29 02:48:24;;;;;;;1.10;0.93;;;25.70;67.60;;;;;;5014446;28;20443;-84
2022/06/29 02:50:51;;;;;;;1.00;0.90;;;25.70;66.80;;;;;;5014410;28;20993;-84
2022/06/29 02:53:17;;;;;;;0.97;0.80;;;25.70;66.70;;;;;;5014572;28;20534;-84
2022/06/29 02:55:44;;;;;;;1.30;0.90;;;25.70;66.70;;;;;;5014614;28;21017;-84
2022/06/29 02:58:11;;;;;;;1.10;1.00;;;25.70;66.70;;;;;;5014588;28;20439;-84
2022/06/29 03:00:38;;;;;;;1.10;0.90;;;25.70;66.80;;;;;;5014292;28;20483;-84
2022/06/29 03:03:05;;;;;;;1.30;1.10;;;25.70;66.80;;;;;;5014353;28;20950;-90
2022/06/29 03:05:33;;;;;;;1.10;0.87;;;25.70;66.70;;;;;;5014107;28;20440;-92
2022/06/29 03:08:00;;;;;;;1.00;0.90;;;25.70;66.80;;;;;;5014172;28;20487;-83
2022/06/29 03:10:27;;;;;;;1.00;0.90;;;25.70;66.70;;;;;;5013980;28;20542;-83
2022/06/29 03:12:54;;;;;;;1.00;0.80;;;25.70;66.70;;;;;;5014018;28;20527;-83
2022/06/29 03:15:21;;;;;;;1.20;0.80;;;25.70;66.70;;;;;;5014127;28;20443;-83
2022/06/29 03:17:48;;;;;;;0.90;0.73;;;25.70;66.70;;;;;;5014095;28;20960;-83
2022/06/29 03:20:15;;;;;;;1.00;0.90;;;25.70;66.70;;;;;;5013696;28;20487;-84
2022/06/29 03:22:46;;;;;;;1.10;0.90;;;25.70;66.70;;;;;;5013660;28;20518;-84
2022/06/29 03:25:13;;;;;;;1.00;0.80;;;25.70;66.70;;;;;;5013876;28;20498;-84
2022/06/29 03:27:40;;;;;;;1.00;0.90;;;25.70;66.70;;;;;;5013664;28;20566;-84
2022/06/29 03:30:08;;;;;;;0.90;0.70;;;25.70;66.70;;;;;;5013668;28;20542;-84
2022/06/29 03:32:34;;;;;;;1.10;0.90;;;25.70;66.80;;;;;;5013985;28;20475;-84
2022/06/29 03:35:02;;;;;;;1.00;0.90;;;25.70;67.60;;;;;;5013822;28;20538;-85
2022/06/29 03:37:29;;;;;;;1.10;0.90;;;25.70;66.70;;;;;;5013750;28;20443;-83
2022/06/29 03:39:57;;;;;;;1.00;0.90;;;25.70;66.70;;;;;;5013549;28;20547;-83
2022/06/29 03:42:24;;;;;;;1.03;0.93;;;25.70;66.80;;;;;;5013553;28;20496;-83
2022/06/29 03:44:51;;;;;;;1.10;0.90;;;25.70;66.70;;;;;;5013634;28;20530;-83
2022/06/29 03:47:18;;;;;;;1.00;0.80;;;25.70;66.80;;;;;;5013562;28;20538;-82
2022/06/29 03:49:45;;;;;;;1.03;0.90;;;25.70;66.70;;;;;;5013524;28;20476;-83
2022/06/29 03:52:12;;;;;;;1.10;0.80;;;25.70;66.70;;;;;;5013417;28;20451;-82
2022/06/29 03:54:39;;;;;;;1.10;0.90;;;25.70;66.70;;;;;;5013177;28;20475;-83
2022/06/29 03:57:07;;;;;;;1.10;0.90;;;25.70;66.70;;;;;;5013401;28;20486;-83
2022/06/29 03:59:34;;;;;;;1.10;1.00;;;25.70;66.70;;;;;;5013411;28;20539;-83
2022/06/29 04:02:01;;;;;;;1.50;1.17;;;25.70;66.80;;;;;;5013274;28;20498;-83
2022/06/29 04:04:28;;;;;;;1.00;0.90;;;25.70;66.80;;;;;;5013398;28;20528;-82
2022/06/29 04:06:54;;;;;;;1.40;1.00;;;25.60;66.70;;;;;;5013383;28;20467;-84
2022/06/29 04:09:21;;;;;;;1.00;0.83;;;25.70;66.80;;;;;;5013359;28;20502;-84
2022/06/29 04:11:52;;;;;;;1.00;0.80;;;25.70;67.70;;;;;;5013292;28;20443;-84
2022/06/29 04:14:22;;;;;;;1.00;0.80;;;25.70;66.80;;;;;;5013376;28;20451;-84
2022/06/29 04:16:49;;;;;;;1.03;0.90;;;25.70;66.80;;;;;;5013355;28;20531;-83
2022/06/29 04:19:16;;;;;;;1.10;1.00;;;25.70;66.80;;;;;;5013221;28;20538;-84
2022/06/29 04:21:43;;;;;;;1.00;0.90;;;25.70;66.80;;;;;;5013341;28;20518;-84
2022/06/29 04:24:10;;;;;;;1.20;1.00;;;25.60;66.70;;;;;;5013193;28;20440;-84
2022/06/29 04:26:38;;;;;;;1.00;0.80;;;25.70;66.80;;;;;;5012987;28;20554;-84
2022/06/29 04:29:05;;;;;;;1.27;1.13;;;25.70;66.80;;;;;;5013200;28;20530;-84
2022/06/29 04:31:33;;;;;;;1.10;0.80;;;25.70;66.90;;;;;;5013180;28;20527;-84
2022/06/29 04:34:01;;;;;;;1.00;0.80;;;25.70;66.80;;;;;;5013235;28;20870;-84
2022/06/29 04:36:28;;;;;;;1.57;0.93;;;25.70;66.80;;;;;;5013383;28;20521;-93
2022/06/29 04:38:55;;;;;;;1.00;0.90;;;25.50;66.70;;;;;;5012921;28;21030;-84
2022/06/29 04:41:23;;;;;;;1.00;0.80;;;25.70;66.80;;;;;;5013140;28;20483;-84
2022/06/29 04:43:50;;;;;;;1.00;0.80;;;25.70;66.80;;;;;;5012996;28;20530;-83
2022/06/29 04:46:21;;;;;;;1.10;1.00;;;25.70;66.80;;;;;;5012952;28;20542;-84
2022/06/29 04:48:50;;;;;;;1.10;1.00;;;25.60;66.70;;;;;;5013162;28;20463;-84
2022/06/29 04:51:17;;;;;;;1.10;0.90;;;25.70;66.80;;;;;;5012805;28;20547;-84
2022/06/29 04:53:45;;;;;;;1.10;0.93;;;25.70;66.90;;;;;;5013342;28;20527;-83
2022/06/29 04:56:13;;;;;;;1.20;1.00;;;25.70;66.80;;;;;;5012822;28;20451;-83
2022/06/29 04:58:40;;;;;;;1.10;1.00;;;25.70;66.80;;;;;;5013064;28;20482;-84
2022/06/29 05:01:07;;;;;;;1.00;0.87;;;25.70;66.80;;;;;;5013159;28;20475;-84
2022/06/29 05:03:34;;;;;;;1.03;0.90;;;25.60;66.70;;;;;;4995202;28;20437;-84
2022/06/29 05:06:02;;;;;;;1.03;0.93;;;25.70;66.90;;;;;;5013708;28;20930;-84
2022/06/29 05:08:29;;;;;;;1.30;0.90;;;25.70;66.90;;;;;;5016417;28;20431;-84
2022/06/29 05:10:56;;;;;;;1.00;0.90;;;25.70;66.80;;;;;;5016277;28;21008;-92
2022/06/29 05:13:23;;;;;;;1.00;0.90;;;25.70;66.90;;;;;;5016337;28;20825;-83
2022/06/29 05:15:50;;;;;;;1.20;1.10;;;25.60;66.80;;;;;;5016393;28;20497;-84
2022/06/29 05:18:17;;;;;;;1.00;0.90;;;25.70;66.80;;;;;;5016284;28;20439;-92
2022/06/29 05:20:44;;;;;;;1.10;1.00;;;25.60;66.80;;;;;;5016467;28;20463;-84
2022/06/29 05:23:13;;;;;;;1.20;1.10;;;25.60;66.80;;;;;;5015986;28;20868;-84
2022/06/29 05:25:40;;;;;;;1.00;0.90;;;25.70;66.90;;;;;;5016190;28;20523;-84
2022/06/29 05:28:07;;;;;;;1.03;0.90;;;25.60;66.80;;;;;;5015816;28;20903;-83
2022/06/29 05:30:34;;;;;;;1.23;0.90;;;25.60;66.80;;;;;;5016170;28;20862;-83
2022/06/29 05:33:01;;;;;;;1.07;0.83;;;25.60;67.70;;;;;;5015895;28;20490;-84
2022/06/29 05:35:29;;;;;;;1.17;0.83;;;25.70;66.90;;;;;;5015911;28;20436;-83
2022/06/29 05:37:57;;;;;;;1.60;1.30;;;25.70;66.90;;;;;;5015843;28;20507;-84
2022/06/29 05:40:25;;;;;;;1.53;1.20;;;25.60;66.80;;;;;;5015791;28;20463;-84
2022/06/29 05:42:53;;;;;;;1.00;0.70;;;25.60;66.80;;;;;;5016683;28;21080;-84
2022/06/29 05:45:20;;;;;;;1.30;1.20;;;25.60;66.80;;;;;;5015615;28;20440;-83
2022/06/29 05:47:47;;;;;;;1.20;1.00;;;25.60;66.90;;;;;;5015689;28;20535;-92
2022/06/29 05:50:13;;;;;;;1.07;0.97;;;25.60;66.90;;;;;;5015587;28;20471;-84
2022/06/29 05:52:40;;;;;;;1.20;1.10;;;25.60;67.70;;;;;;5015530;28;20471;-84
2022/06/29 05:55:08;;;;;;;1.20;0.90;;;25.60;67.70;;;;;;5015423;28;20443;-84
2022/06/29 05:57:37;;;;;;;1.30;1.03;;;25.60;66.80;;;;;;5015279;28;20911;-84
2022/06/29 06:00:07;;;;;;;1.10;0.90;;;25.60;66.80;;;;;;5015368;28;20475;-83
2022/06/29 06:02:34;;;;;;;1.00;0.90;;;25.60;66.90;;;;;;5015181;28;20487;-83
2022/06/29 06:05:00;;;;;;;2.23;1.00;;;25.60;66.80;;;;;;5015293;28;20443;-83
2022/06/29 06:07:27;;;;;;;1.20;0.97;;;25.60;66.80;;;;;;5015166;28;20472;-83
2022/06/29 06:09:54;;;;;;;1.20;1.00;;;25.70;66.90;;;;;;5015043;28;20476;-91
2022/06/29 06:12:23;;;;;;;1.37;1.00;;;25.60;66.80;;;;;;5015207;28;20451;-84
2022/06/29 06:14:51;;;;;;;1.20;1.10;;;25.70;66.90;;;;;;5014867;28;20443;-84
2022/06/29 06:17:18;;;;;;;1.10;0.90;;;25.70;66.90;;;;;;5014954;28;20534;-83
2022/06/29 06:19:44;;;;;;;1.10;1.00;;;25.60;66.90;;;;;;5015254;28;20479;-83
2022/06/29 06:22:12;;;;;;;1.20;1.03;;;25.60;66.80;;;;;;5014818;28;20518;-83
2022/06/29 06:24:39;;;;;;;1.03;0.93;;;25.70;66.90;;;;;;5014844;28;20475;-84
2022/06/29 06:27:06;;;;;;;1.00;0.90;;;25.70;66.90;;;;;;5014665;28;20558;-91
2022/06/29 06:29:33;;;;;;;1.00;0.90;;;25.70;66.90;;;;;;5014847;28;20462;-83
2022/06/29 06:32:02;;;;;;;1.40;1.03;;;25.60;66.80;;;;;;5015041;28;20547;-83
2022/06/29 06:34:28;;;;;;;1.20;1.03;;;25.70;66.90;;;;;;5014724;28;20440;-83
2022/06/29 06:36:55;;;;;;;1.10;1.00;;;25.60;66.80;;;;;;5014639;28;20444;-84
2022/06/29 06:39:22;;;;;;;1.00;0.90;;;25.70;66.90;;;;;;5014345;28;20559;-83
2022/06/29 06:41:48;;;;;;;1.30;1.00;;;25.70;67.00;;;;;;5014405;28;20481;-83
2022/06/29 06:44:15;;;;;;;1.13;1.03;;;25.70;66.90;;;;;;5014685;28;20447;-83
2022/06/29 06:46:46;;;;;;;1.07;0.97;;;25.60;66.90;;;;;;5014697;28;20632;-83
2022/06/29 06:49:15;;;;;;;1.00;0.90;;;25.60;66.80;;;;;;5014401;28;20844;-84
2022/06/29 06:51:42;;;;;;;1.10;1.00;;;25.60;66.90;;;;;;5014498;28;20475;-84
2022/06/29 06:54:08;;;;;;;1.03;0.90;;;25.70;67.00;;;;;;5014374;28;20518;-84
2022/06/29 06:56:35;;;;;;;1.10;1.00;;;25.60;66.90;;;;;;5014434;28;20468;-84
2022/06/29 06:59:02;;;;;;;1.10;1.00;;;25.70;67.00;;;;;;5014321;28;20451;-82
2022/06/29 07:01:29;;;;;;;1.00;0.90;;;25.60;66.90;;;;;;5014126;28;20858;-83
2022/06/29 07:03:56;;;;;;;1.10;1.00;;;25.60;66.90;;;;;;5014070;28;20966;-84
2022/06/29 07:06:24;;;;;;;1.17;1.07;;;25.70;67.00;;;;;;5014183;28;20447;-84
2022/06/29 07:08:54;;;;;;;1.20;1.00;;;25.60;67.00;;;;;;5014027;28;20480;-84
2022/06/29 07:11:21;;;;;;;1.07;0.93;;;25.60;67.00;;;;;;5014280;28;20451;-84
2022/06/29 07:13:48;;;;;;;1.17;0.97;;;25.60;67.00;;;;;;5014081;28;20482;-84
2022/06/29 07:16:15;;;;;;;1.20;1.10;;;25.60;67.00;;;;;;5014097;28;20539;-83
2022/06/29 07:18:42;;;;;;;1.20;1.10;;;25.60;67.00;;;;;;5013515;28;20530;-86
2022/06/29 07:21:09;;;;;;;1.30;1.20;;;25.60;67.10;;;;;;5013762;28;20508;-82
2022/06/29 07:23:37;;;;;;;1.10;0.90;;;25.60;67.00;;;;;;5013763;28;20498;-83
2022/06/29 07:26:05;;;;;;;1.13;1.03;;;25.60;67.00;;;;;;5013761;28;20946;-83
2022/06/29 07:28:32;;;;;;;1.00;0.90;;;25.60;67.00;;;;;;5013796;28;20440;-84
2022/06/29 07:30:59;;;;;;;1.10;0.97;;;25.60;67.10;;;;;;5013857;28;20538;-82
2022/06/29 07:33:26;;;;;;;1.33;1.07;;;25.60;67.10;;;;;;5013985;28;20930;-84
2022/06/29 07:35:53;;;;;;;1.20;1.10;;;25.60;67.00;;;;;;5013713;28;20875;-83
2022/06/29 07:38:20;;;;;;;1.30;0.90;;;25.60;67.10;;;;;;5013825;28;20535;-85
2022/06/29 07:40:48;;;;;;;1.17;1.03;;;25.60;67.10;;;;;;5013700;28;20474;-84
2022/06/29 07:43:15;;;;;;;1.30;1.10;;;25.60;67.10;;;;;;5013699;28;20591;-83
2022/06/29 07:45:42;;;;;;;1.17;1.07;;;25.60;67.10;;;;;;5013714;28;21022;-84
2022/06/29 07:48:09;;;;;;;1.23;1.00;;;25.60;67.10;;;;;;5013557;28;20506;-88
2022/06/29 07:50:37;;;;;;;1.20;1.10;;;25.60;67.10;;;;;;5013600;28;20535;-84
2022/06/29 07:53:03;;;;;;;1.30;1.20;;;25.60;67.10;;;;;;5013538;28;20444;-84
2022/06/29 07:55:30;;;;;;;1.20;1.00;;;25.60;67.10;;;;;;5013417;28;20514;-84
2022/06/29 07:58:00;;;;;;;1.20;1.10;;;25.60;67.10;;;;;;5013475;28;20475;-84
2022/06/29 08:00:27;;;;;;;1.00;0.90;;;25.60;67.10;;;;;;5013365;28;20439;-84
2022/06/29 08:02:54;;;;;;;1.40;1.30;;;25.60;67.10;;;;;;5013212;28;20486;-83
2022/06/29 08:05:21;;;;;;;1.27;1.17;;;25.60;67.10;;;;;;5013503;28;20475;-83
2022/06/29 08:07:48;;;;;;;1.70;1.30;;;25.60;67.10;;;;;;5013488;28;20522;-84
2022/06/29 08:10:15;;;;;;;1.27;1.10;;;25.60;67.20;;;;;;5013435;28;20471;-84
2022/06/29 08:12:42;;;;;;;1.10;1.00;;;25.60;67.20;;;;;;5013301;28;20448;-84
2022/06/29 08:15:11;;;;;;;1.10;1.00;;;25.60;67.20;;;;;;5013528;28;21006;-84
2022/06/29 08:17:38;;;;;;;1.00;0.90;;;25.60;67.20;;;;;;5013394;28;20447;-84
2022/06/29 08:20:06;;;;;;;1.00;0.87;;;25.60;67.20;;;;;;5013323;28;20450;-84
2022/06/29 08:22:33;;;;;;;1.03;0.93;;;25.60;67.20;;;;;;5013229;28;20883;-84
2022/06/29 08:25:00;;;;;;;1.30;0.90;;;25.60;67.20;;;;;;5013655;28;20836;-84
2022/06/29 08:27:28;;;;;;;1.87;1.23;;;25.60;67.30;;;;;;5013127;28;20475;-84
2022/06/29 08:29:55;;;;;;;1.20;1.10;;;25.60;67.20;;;;;;5013127;28;20858;-84
2022/06/29 08:32:23;;;;;;;1.63;1.27;;;25.70;67.40;;;;;;5013110;28;20450;-84
2022/06/29 08:34:51;;;;;;;1.30;1.10;;;25.60;67.30;;;;;;5013158;28;20530;-83
2022/06/29 08:37:18;;;;;;;1.23;1.13;;;25.60;67.30;;;;;;5013046;28;20487;-83
2022/06/29 08:39:45;;;;;;;1.63;1.00;;;25.70;67.40;;;;;;5013666;28;20546;-83
2022/06/29 08:42:12;;;;;;;1.00;0.83;;;25.70;67.30;;;;;;5016725;28;20444;-83
2022/06/29 08:44:40;;;;;;;1.20;1.10;;;25.70;67.40;;;;;;5017111;28;20440;-83
2022/06/29 08:47:09;;;;;;;1.00;0.87;;;25.70;67.40;;;;;;5016817;28;20475;-83
2022/06/29 08:49:37;;;;;;;1.20;1.10;;;25.70;67.40;;;;;;5016728;28;20525;-83
2022/06/29 08:52:06;;;;;;;1.70;1.07;;;25.70;67.40;;;;;;5016398;28;20444;-83
2022/06/29 08:54:37;;;;;;;1.20;1.00;;;25.70;67.40;;;;;;5016683;28;20439;-83
2022/06/29 08:57:05;;;;;;;1.20;0.90;;;25.70;67.40;;;;;;5017968;28;20839;-83
2022/06/29 08:59:34;;;;;;;1.00;0.90;;;25.70;67.50;;;;;;5017918;28;20439;-83
2022/06/29 09:02:02;;;;;;;1.17;1.00;;;25.60;67.40;;;;;;5019867;28;20435;-82
2022/06/29 09:04:29;;;;;;;1.80;1.27;;;25.70;67.50;;;;;;5016814;28;20516;-83
2022/06/29 09:06:58;;;;;;;1.00;0.90;;;25.60;67.40;;;;;;5016430;28;20435;-83
2022/06/29 09:09:25;;;;;;;1.10;1.00;;;25.60;67.40;;;;;;5016404;28;20470;-83
2022/06/29 09:11:53;;;;;;;1.20;1.10;;;25.70;67.50;;;;;;5016593;28;20450;-84
2022/06/29 09:14:21;;;;;;;1.33;1.23;;;25.60;67.50;;;;;;5016232;28;20475;-83
2022/06/29 09:16:59;;;;;;;1.30;1.20;;;25.60;67.50;;;;;;5016553;28;20529;-84
2022/06/29 09:19:28;;;;;;;1.20;0.93;;;25.60;67.50;;;;;;5016181;28;20476;-83
2022/06/29 09:21:58;;;;;;;1.17;1.07;;;25.60;68.50;;;;;;5016064;28;20498;-83
2022/06/29 09:24:27;;;;;;;1.20;1.00;;;25.60;67.60;;;;;;5016086;28;20570;-83
2022/06/29 09:26:56;;;;;;;1.10;1.00;;;25.60;68.50;;;;;;5015901;28;20562;-83
2022/06/29 09:29:24;;;;;;;1.20;1.10;;;25.70;67.70;;;;;;5016135;28;20479;-85
2022/06/29 09:32:15;;;;;;;1.50;1.30;;;25.60;67.60;;;;;;5016056;28;20467;-83
2022/06/29 09:34:44;;;;;;;1.13;1.03;;;25.70;67.60;;;;;;5016055;28;20463;-86
2022/06/29 09:37:15;;;;;;;1.10;1.00;;;25.60;67.60;;;;;;5015735;28;20442;-91
2022/06/29 09:39:44;;;;;;;1.10;1.00;;;25.60;67.60;;;;;;5015709;28;20552;-83
2022/06/29 09:42:13;;;;;;;1.20;1.10;;;25.60;67.60;;;;;;5015814;28;20531;-84
2022/06/29 09:44:42;;;;;;;1.27;1.07;;;25.60;67.60;;;;;;5016022;28;20487;-95
2022/06/29 09:47:12;;;;;;;1.20;1.10;;;25.60;67.60;;;;;;5016055;28;20542;-84
2022/06/29 09:49:39;;;;;;;1.10;1.00;;;25.60;67.60;;;;;;5015815;28;20454;-91
2022/06/29 09:52:07;;;;;;;1.30;1.20;;;25.60;67.70;;;;;;5015193;28;20531;-84
2022/06/29 09:54:40;;;;;;;1.00;0.90;;;25.60;67.60;;;;;;5015580;28;20476;-83
2022/06/29 09:57:08;;;;;;;1.40;1.20;;;25.70;67.70;;;;;;5015655;28;20479;-84
2022/06/29 10:02:37;;;;;;;1.30;1.20;;;25.60;67.70;;;;;;5015448;28;20486;-83
2022/06/29 10:05:09;;;;;;;1.30;1.20;;;25.60;67.70;;;;;;4998030;28;20443;-84
2022/06/29 10:07:37;;;;;;;1.20;1.07;;;25.60;67.70;;;;;;5015285;28;20946;-84
2022/06/29 10:10:08;;;;;;;1.20;1.10;;;25.60;67.70;;;;;;5015283;28;20456;-84
2022/06/29 10:15:55;;;;;;;1.10;1.00;;;25.70;67.70;;;;;;5015421;28;20555;-84
2022/06/29 10:18:34;;;;;;;1.33;1.20;;;25.60;67.80;;;;;;5015085;28;20535;-90
2022/06/29 10:21:03;;;;;;;1.10;0.93;;;25.70;67.80;;;;;;5015068;28;20443;-84
2022/06/29 10:23:51;;;;;;;1.20;1.10;;;25.60;67.80;;;;;;5015031;28;20574;-84
2022/06/29 10:26:43;;;;;;;1.13;1.03;;;25.70;67.70;;;;;;5008857;28;21022;-84
2022/06/29 10:29:29;;;;;;;1.20;1.10;;;25.70;67.70;;;;;;5015080;28;20439;-92
2022/06/29 10:32:07;;;;;;;1.10;1.00;;;25.60;67.60;;;;;;5014881;28;20454;-93
2022/06/29 10:34:40;;;;;;;1.20;1.10;;;25.70;67.80;;;;;;5014965;28;20534;-84
2022/06/29 10:37:08;;;;;;;1.60;1.07;;;25.60;67.70;;;;;;5014749;28;20447;-84
2022/06/29 10:39:54;;;;;;;1.10;0.93;;;25.60;67.70;;;;;;5014736;28;20478;-84
2022/06/29 10:45:25;;;;;;;1.13;1.03;;;25.70;67.70;;;;;;5014856;28;20547;-85
2022/06/29 10:48:21;;;;;;;1.20;1.07;;;25.60;67.60;;;;;;5014566;28;20938;-85
2022/06/29 10:50:48;;;;;;;1.10;0.90;;;25.70;67.70;;;;;;5005734;28;20444;-85
2022/06/29 10:53:17;;;;;;;1.20;1.10;;;25.60;67.60;;;;;;5014577;28;20436;-85
2022/06/29 10:55:46;;;;;;;1.03;0.93;;;25.70;67.70;;;;;;5014346;28;20472;-85
2022/06/29 10:58:15;;;;;;;1.10;1.00;;;25.70;67.70;;;;;;5014412;28;20522;-86
2022/06/29 11:00:43;;;;;;;1.20;1.10;;;25.70;67.70;;;;;;5014430;28;20444;-85
2022/06/29 11:03:18;;;;;;;1.20;1.10;;;25.70;67.60;;;;;;5013519;28;20562;-90
2022/06/29 11:14:03;;;;;;;1.00;0.80;;;25.60;67.60;;;;;;5014269;28;20534;-84
2022/06/29 11:16:36;;;;;;;1.10;1.00;;;25.70;68.50;;;;;;5014420;28;20859;-84
2022/06/29 11:19:04;;;;;;;1.17;1.07;;;25.60;67.60;;;;;;5013950;28;20926;-84
2022/06/29 11:21:32;;;;;;;1.50;1.33;;;25.60;67.60;;;;;;5014032;28;20475;-84
2022/06/29 11:24:04;;;;;;;1.17;1.07;;;25.70;67.70;;;;;;5014360;28;20483;-87
2022/06/29 11:26:32;;;;;;;1.50;1.40;;;25.60;67.60;;;;;;5013933;28;20571;-84
2022/06/29 11:29:03;;;;;;;2.03;1.10;;;25.70;67.70;;;;;;5014024;28;20497;-85
2022/06/29 11:31:31;;;;;;;1.40;1.20;;;25.70;67.60;;;;;;5013972;28;20471;-84
2022/06/29 11:33:58;;;;;;;1.23;1.10;;;25.70;67.60;;;;;;5013887;28;20436;-92
2022/06/29 11:36:27;;;;;;;1.30;1.10;;;25.70;67.70;;;;;;5013788;28;20534;-85
2022/06/29 11:38:55;;;;;;;1.20;1.10;;;25.70;67.60;;;;;;5014003;28;20467;-85
2022/06/29 11:41:25;;;;;;;1.10;1.00;;;25.70;68.50;;;;;;5013805;28;20509;-84
2022/06/29 11:44:05;;;;;;;1.20;1.10;;;25.70;67.60;;;;;;5013187;28;20566;-84
2022/06/29 11:46:35;;;;;;;1.20;1.10;;;25.70;67.60;;;;;;5013801;28;20454;-84
2022/06/29 11:51:52;;;;;;;1.20;1.10;;;25.70;67.70;;;;;;5013719;28;20423;-85
2022/06/29 11:54:34;;;;;;;1.40;1.03;;;25.70;67.70;;;;;;5013503;28;20471;-84
2022/06/29 11:57:04;;;;;;;1.20;1.10;;;25.60;67.60;;;;;;5013198;28;20443;-92
2022/06/29 11:59:33;;;;;;;1.30;1.10;;;25.70;67.70;;;;;;5013555;28;20494;-84
2022/06/29 12:02:01;;;;;;;1.10;0.90;;;25.70;67.70;;;;;;5013489;28;20967;-84
2022/06/29 12:04:30;;;;;;;1.20;1.10;;;25.70;67.70;;;;;;5013327;28;20855;-84
2022/06/29 12:07:05;;;;;;;1.20;1.10;;;25.70;67.70;;;;;;5013476;28;20471;-84
2022/06/29 12:09:32;;;;;;;1.00;0.90;;;25.70;67.70;;;;;;5013247;28;20490;-84
2022/06/29 12:11:59;;;;;;;1.30;1.13;;;25.70;67.70;;;;;;5013282;28;20523;-84
2022/06/29 12:14:26;;;;;;;1.40;1.27;;;25.70;67.70;;;;;;5013715;28;20539;-84
2022/06/29 12:16:54;;;;;;;1.13;1.03;;;25.70;67.70;;;;;;5017493;28;20530;-84
2022/06/29 12:19:21;;;;;;;1.60;1.37;;;25.70;67.70;;;;;;5017289;28;20446;-84
2022/06/29 12:21:48;;;;;;;1.00;0.90;;;25.70;67.70;;;;;;5017202;28;20470;-84
2022/06/29 12:24:15;;;;;;;1.47;1.13;;;25.70;67.70;;;;;;5017165;28;20486;-84
2022/06/29 12:26:43;;;;;;;1.20;1.10;;;25.70;67.70;;;;;;5016925;28;20478;-84
2022/06/29 12:29:09;;;;;;;1.30;1.20;;;25.70;67.70;;;;;;5017172;28;20447;-84
2022/06/29 12:31:37;;;;;;;1.40;1.10;;;25.70;67.70;;;;;;5017323;28;20493;-84
2022/06/29 12:34:07;;;;;;;1.30;1.20;;;25.70;67.70;;;;;;5017105;28;20489;-84
2022/06/29 12:36:34;;;;;;;1.10;1.00;;;25.70;67.70;;;;;;5017270;28;20946;-84
2022/06/29 12:39:01;;;;;;;1.20;1.10;;;25.70;67.70;;;;;;5017142;28;20585;-84
2022/06/29 12:41:28;;;;;;;1.30;1.20;;;25.70;67.70;;;;;;5016987;28;20474;-85
2022/06/29 12:43:54;;;;;;;1.10;1.00;;;25.70;67.70;;;;;;5016845;28;20515;-84
2022/06/29 12:46:21;;;;;;;1.10;1.00;;;25.70;67.70;;;;;;5016945;28;20454;-84
2022/06/29 12:48:48;;;;;;;1.10;1.00;;;25.70;68.50;;;;;;5016926;28;20873;-84
2022/06/29 12:51:16;;;;;;;1.40;1.20;;;25.70;67.70;;;;;;5017025;28;20443;-91
2022/06/29 12:53:44;;;;;;;1.10;1.00;;;25.70;67.70;;;;;;5016776;28;20467;-84
2022/06/29 12:56:11;;;;;;;1.40;1.20;;;25.70;67.70;;;;;;5016840;28;20526;-84
2022/06/29 12:58:38;;;;;;;1.40;1.23;;;25.70;68.50;;;;;;5016475;28;20482;-84
2022/06/29 13:01:05;;;;;;;1.20;1.10;;;25.70;67.70;;;;;;5016580;28;20501;-84
2022/06/29 13:03:32;;;;;;;1.40;1.30;;;25.70;67.70;;;;;;5016491;28;20435;-84
2022/06/29 13:05:59;;;;;;;1.13;1.03;;;25.70;68.60;;;;;;5016470;28;20444;-84
2022/06/29 13:08:27;;;;;;;1.40;1.30;;;25.70;67.70;;;;;;5016362;28;20451;-84
2022/06/29 13:10:54;;;;;;;1.30;1.20;;;25.70;67.70;;;;;;5016412;28;20550;-84
2022/06/29 13:13:20;;;;;;;1.20;1.10;;;25.70;68.60;;;;;;5016188;28;20482;-84
2022/06/29 13:15:47;;;;;;;1.30;1.20;;;25.70;67.70;;;;;;5016432;28;20444;-84
2022/06/29 13:18:15;;;;;;;1.30;1.10;;;25.70;68.60;;;;;;5016707;28;20530;-84